Time,TemperatureF,DewpointF,PressureIn,WindDirection,WindDirectionDegrees,WindSpeedMPH,WindSpeedGustMPH,Humidity,HourlyPrecipIn,Conditions,Clouds,dailyrainin,SoftwareType,DateUTC
2013-03-24 00:01:00,37.2,33.4,30.27,WNW,294,0.0,0.0,86,0.00,,---,0.00,VWS V14.00,2013-03-24 07:01:00,
2013-03-24 00:06:00,37.1,33.3,30.27,WNW,294,0.0,0.0,86,0.00,,---,0.00,VWS V14.00,2013-03-24 07:06:00,
2013-03-24 00:11:00,36.9,33.1,30.27,WNW,294,0.0,0.0,86,0.00,,---,0.00,VWS V14.00,2013-03-24 07:11:00,
2013-03-24 00:16:00,36.8,33.0,30.27,WNW,294,0.0,0.0,86,0.00,,---,0.00,VWS V14.00,2013-03-24 07:16:00,
2013-03-24 00:21:00,36.5,33.0,30.27,WNW,294,0.0,0.0,87,0.00,,---,0.00,VWS V14.00,2013-03-24 07:21:00,
2013-03-24 00:26:00,36.3,32.8,30.27,WNW,294,0.0,0.0,87,0.00,,---,0.00,VWS V14.00,2013-03-24 07:26:00,
2013-03-24 00:31:00,36.1,32.6,30.27,WNW,294,0.0,0.0,87,0.00,,---,0.00,VWS V14.00,2013-03-24 07:31:00,
2013-03-24 00:36:00,36.1,32.6,30.27,WNW,294,0.0,0.0,87,0.00,,---,0.00,VWS V14.00,2013-03-24 07:36:00,
2013-03-24 00:41:00,36.1,32.6,30.27,WNW,294,0.0,0.0,87,0.00,,---,0.00,VWS V14.00,2013-03-24 07:41:00,
2013-03-24 00:46:00,36.0,32.5,30.27,WNW,294,0.0,0.0,87,0.00,,---,0.00,VWS V14.00,2013-03-24 07:46:00,
2013-03-24 00:51:00,36.1,32.9,30.26,WNW,294,0.0,0.0,88,0.00,,---,0.00,VWS V14.00,2013-03-24 07:51:00,
2013-03-24 00:56:00,36.2,33.0,30.27,WNW,294,0.0,0.0,88,0.00,,---,0.00,VWS V14.00,2013-03-24 07:56:00,
2013-03-24 01:01:00,36.1,32.9,30.26,WNW,294,0.0,0.0,88,0.00,,---,0.00,VWS V14.00,2013-03-24 08:01:00,
2013-03-24 01:06:00,36.0,32.8,30.26,WNW,294,0.0,0.0,88,0.00,,---,0.00,VWS V14.00,2013-03-24 08:06:00,
2013-03-24 01:11:00,35.9,32.7,30.27,WNW,294,0.0,0.0,88,0.00,,---,0.00,VWS V14.00,2013-03-24 08:11:00,
2013-03-24 01:16:00,35.9,33.0,30.27,WNW,294,0.0,0.0,89,0.00,,---,0.00,VWS V14.00,2013-03-24 08:16:00,
2013-03-24 01:21:00,35.9,33.0,30.26,WNW,294,0.0,0.0,89,0.00,,---,0.00,VWS V14.00,2013-03-24 08:21:00,
2013-03-24 01:26:00,35.7,32.8,30.26,WNW,294,0.0,0.0,89,0.00,,---,0.00,VWS V14.00,2013-03-24 08:26:00,
2013-03-24 01:31:00,35.5,32.9,30.27,WNW,294,0.0,0.0,90,0.00,,---,0.00,VWS V14.00,2013-03-24 08:31:00,
2013-03-24 01:36:00,35.4,32.8,30.27,WNW,294,0.0,0.0,90,0.00,,---,0.00,VWS V14.00,2013-03-24 08:36:00,
2013-03-24 01:41:00,35.4,32.8,30.27,WNW,294,0.0,0.0,90,0.00,,---,0.00,VWS V14.00,2013-03-24 08:41:00,
2013-03-24 01:46:00,35.3,32.7,30.27,WNW,294,0.0,0.0,90,0.00,,---,0.00,VWS V14.00,2013-03-24 08:46:00,
2013-03-24 01:51:00,35.3,32.7,30.27,WNW,294,0.0,0.0,90,0.00,,---,0.00,VWS V14.00,2013-03-24 08:51:00,
2013-03-24 01:56:00,35.1,32.5,30.27,WNW,294,0.0,0.0,90,0.00,,---,0.00,VWS V14.00,2013-03-24 08:56:00,
2013-03-24 02:02:00,34.9,32.3,30.26,WNW,294,0.0,0.0,90,0.00,,---,0.00,VWS V14.00,2013-03-24 09:02:00,
2013-03-24 02:07:00,34.7,32.1,30.26,WNW,296,0.0,1.0,90,0.00,,---,0.00,VWS V14.00,2013-03-24 09:07:00,
2013-03-24 02:12:00,34.7,32.3,30.27,WNW,296,0.0,1.0,91,0.00,,---,0.00,VWS V14.00,2013-03-24 09:12:00,
2013-03-24 02:17:00,34.5,32.2,30.27,WNW,296,0.0,1.0,91,0.00,,---,0.00,VWS V14.00,2013-03-24 09:17:00,
2013-03-24 02:22:00,34.4,32.0,30.27,WNW,296,0.0,1.0,91,0.00,,---,0.00,VWS V14.00,2013-03-24 09:22:00,
2013-03-24 02:27:00,34.3,32.0,30.27,WNW,296,0.0,1.0,91,0.00,,---,0.00,VWS V14.00,2013-03-24 09:27:00,
2013-03-24 02:32:00,34.2,31.9,30.27,WNW,296,0.0,1.0,91,0.00,,---,0.00,VWS V14.00,2013-03-24 09:32:00,
2013-03-24 02:37:00,34.0,31.6,30.27,WNW,296,0.0,0.0,91,0.00,,---,0.00,VWS V14.00,2013-03-24 09:37:00,
2013-03-24 02:42:00,33.8,31.5,30.27,WNW,296,0.0,0.0,91,0.00,,---,0.00,VWS V14.00,2013-03-24 09:42:00,
2013-03-24 02:47:00,33.6,31.3,30.26,WNW,296,0.0,0.0,91,0.00,,---,0.00,VWS V14.00,2013-03-24 09:47:00,
2013-03-24 02:52:00,33.6,31.5,30.26,WNW,296,0.0,0.0,92,0.00,,---,0.00,VWS V14.00,2013-03-24 09:52:00,
2013-03-24 02:57:00,33.7,31.6,30.27,WNW,296,0.0,0.0,92,0.00,,---,0.00,VWS V14.00,2013-03-24 09:57:00,
2013-03-24 03:02:00,33.7,31.6,30.27,WNW,296,0.0,0.0,92,0.00,,---,0.00,VWS V14.00,2013-03-24 10:02:00,
2013-03-24 03:07:00,33.7,31.6,30.27,WNW,296,0.0,0.0,92,0.00,,---,0.00,VWS V14.00,2013-03-24 10:07:00,
2013-03-24 03:12:00,33.6,31.5,30.26,WNW,296,0.0,0.0,92,0.00,,---,0.00,VWS V14.00,2013-03-24 10:12:00,
2013-03-24 03:17:00,33.5,31.4,30.26,WNW,296,0.0,0.0,92,0.00,,---,0.00,VWS V14.00,2013-03-24 10:17:00,
2013-03-24 03:22:00,33.4,31.3,30.26,WNW,296,0.0,0.0,92,0.00,,---,0.00,VWS V14.00,2013-03-24 10:22:00,
2013-03-24 03:27:00,33.3,31.2,30.26,WNW,296,0.0,0.0,92,0.00,,---,0.00,VWS V14.00,2013-03-24 10:27:00,
2013-03-24 03:32:00,33.3,31.2,30.26,WNW,296,0.0,0.0,92,0.00,,---,0.00,VWS V14.00,2013-03-24 10:32:00,
2013-03-24 03:37:00,33.5,31.7,30.26,WNW,296,0.0,0.0,93,0.00,,---,0.00,VWS V14.00,2013-03-24 10:37:00,
2013-03-24 03:42:00,33.6,31.8,30.26,WNW,296,0.0,0.0,93,0.00,,---,0.00,VWS V14.00,2013-03-24 10:42:00,
2013-03-24 03:47:00,33.7,32.2,30.26,WNW,296,0.0,0.0,94,0.00,,---,0.00,VWS V14.00,2013-03-24 10:47:00,
2013-03-24 03:52:00,33.8,32.3,30.25,WNW,296,0.0,0.0,94,0.00,,---,0.00,VWS V14.00,2013-03-24 10:52:00,
2013-03-24 03:57:00,33.9,32.4,30.25,WNW,296,0.0,0.0,94,0.00,,---,0.00,VWS V14.00,2013-03-24 10:57:00,
2013-03-24 04:02:00,34.0,32.5,30.25,WNW,296,0.0,0.0,94,0.00,,---,0.00,VWS V14.00,2013-03-24 11:02:00,
2013-03-24 04:07:00,34.1,32.6,30.25,WNW,296,0.0,0.0,94,0.00,,---,0.00,VWS V14.00,2013-03-24 11:07:00,
2013-03-24 04:12:00,34.2,32.7,30.25,WNW,296,0.0,0.0,94,0.00,,---,0.00,VWS V14.00,2013-03-24 11:12:00,
2013-03-24 04:17:00,34.3,32.8,30.25,WNW,296,0.0,0.0,94,0.00,,---,0.00,VWS V14.00,2013-03-24 11:17:00,
2013-03-24 04:22:00,34.4,32.9,30.25,WNW,296,0.0,0.0,94,0.00,,---,0.00,VWS V14.00,2013-03-24 11:22:00,
2013-03-24 04:28:00,34.5,32.7,30.25,WNW,296,0.0,0.0,93,0.00,,---,0.00,VWS V14.00,2013-03-24 11:28:00,
2013-03-24 04:33:00,34.6,32.8,30.24,WNW,296,0.0,0.0,93,0.00,,---,0.00,VWS V14.00,2013-03-24 11:33:00,
2013-03-24 04:38:00,34.6,32.8,30.24,WNW,296,0.0,0.0,93,0.00,,---,0.00,VWS V14.00,2013-03-24 11:38:00,
2013-03-24 04:43:00,34.6,32.5,30.24,WNW,296,0.0,0.0,92,0.00,,---,0.00,VWS V14.00,2013-03-24 11:43:00,
2013-03-24 04:48:00,34.7,32.9,30.24,WNW,296,0.0,0.0,93,0.00,,---,0.00,VWS V14.00,2013-03-24 11:48:00,
2013-03-24 04:53:00,34.7,32.9,30.24,WNW,296,0.0,0.0,93,0.00,,---,0.00,VWS V14.00,2013-03-24 11:53:00,
2013-03-24 04:58:00,34.5,32.4,30.23,WNW,296,0.0,0.0,92,0.00,,---,0.00,VWS V14.00,2013-03-24 11:58:00,
2013-03-24 05:03:00,34.4,32.6,30.23,WNW,296,0.0,0.0,93,0.00,,---,0.00,VWS V14.00,2013-03-24 12:03:00,
2013-03-24 05:08:00,34.3,32.5,30.23,WNW,296,0.0,0.0,93,0.00,,---,0.00,VWS V14.00,2013-03-24 12:08:00,
2013-03-24 05:13:00,34.4,32.6,30.23,WNW,296,0.0,0.0,93,0.00,,---,0.00,VWS V14.00,2013-03-24 12:13:00,
2013-03-24 05:18:00,34.4,32.6,30.23,WNW,296,0.0,0.0,93,0.00,,---,0.00,VWS V14.00,2013-03-24 12:18:00,
2013-03-24 05:23:00,34.4,32.6,30.22,WNW,296,0.0,0.0,93,0.00,,---,0.00,VWS V14.00,2013-03-24 12:23:00,
2013-03-24 05:28:00,34.4,32.6,30.22,WNW,296,0.0,0.0,93,0.00,,---,0.00,VWS V14.00,2013-03-24 12:28:00,
2013-03-24 05:33:00,34.2,32.4,30.22,NW,304,0.0,2.0,93,0.00,,---,0.00,VWS V14.00,2013-03-24 12:33:00,
2013-03-24 05:38:00,34.1,32.3,30.22,NW,304,0.0,2.0,93,0.00,,---,0.00,VWS V14.00,2013-03-24 12:38:00,
2013-03-24 05:43:00,34.1,32.3,30.22,NW,304,0.0,2.0,93,0.00,,---,0.00,VWS V14.00,2013-03-24 12:43:00,
2013-03-24 05:48:00,34.1,32.3,30.22,NW,304,0.0,2.0,93,0.00,,---,0.00,VWS V14.00,2013-03-24 12:48:00,
2013-03-24 05:53:00,34.1,32.3,30.22,NW,304,0.0,2.0,93,0.00,,---,0.00,VWS V14.00,2013-03-24 12:53:00,
2013-03-24 05:58:00,34.0,32.2,30.23,NW,304,0.0,2.0,93,0.00,,---,0.00,VWS V14.00,2013-03-24 12:58:00,
2013-03-24 06:03:00,34.0,32.2,30.23,NW,304,0.0,0.0,93,0.00,,---,0.00,VWS V14.00,2013-03-24 13:03:00,
2013-03-24 06:08:00,33.9,32.1,30.23,NW,304,0.0,0.0,93,0.00,,---,0.00,VWS V14.00,2013-03-24 13:08:00,
2013-03-24 06:13:00,33.9,32.1,30.23,NW,304,0.0,0.0,93,0.00,,---,0.00,VWS V14.00,2013-03-24 13:13:00,
2013-03-24 06:18:00,33.8,32.0,30.23,NW,304,0.0,0.0,93,0.00,,---,0.00,VWS V14.00,2013-03-24 13:18:00,
2013-03-24 06:23:00,33.9,32.1,30.23,NW,304,0.0,0.0,93,0.00,,---,0.00,VWS V14.00,2013-03-24 13:23:00,
2013-03-24 06:28:00,34.0,32.2,30.23,NW,304,0.0,0.0,93,0.00,,---,0.00,VWS V14.00,2013-03-24 13:28:00,
2013-03-24 06:33:00,34.1,32.3,30.23,NW,304,0.0,0.0,93,0.00,,---,0.00,VWS V14.00,2013-03-24 13:33:00,
2013-03-24 06:38:00,34.1,32.3,30.23,NW,304,0.0,0.0,93,0.00,,---,0.00,VWS V14.00,2013-03-24 13:38:00,
2013-03-24 06:43:00,34.2,32.4,30.23,NW,304,0.0,0.0,93,0.00,,---,0.00,VWS V14.00,2013-03-24 13:43:00,
2013-03-24 06:48:00,34.2,32.4,30.23,NW,311,0.0,2.0,93,0.00,,---,0.00,VWS V14.00,2013-03-24 13:48:00,
2013-03-24 06:53:00,34.3,32.5,30.23,NW,311,0.0,2.0,93,0.00,,---,0.00,VWS V14.00,2013-03-24 13:53:00,
2013-03-24 06:58:00,34.3,32.5,30.23,NW,311,0.0,2.0,93,0.00,,---,0.00,VWS V14.00,2013-03-24 13:58:00,
2013-03-24 07:03:00,34.3,32.5,30.23,NW,311,0.0,0.0,93,0.00,,---,0.00,VWS V14.00,2013-03-24 14:03:00,
2013-03-24 07:08:00,34.4,32.6,30.24,NW,311,0.0,0.0,93,0.00,,---,0.00,VWS V14.00,2013-03-24 14:08:00,
2013-03-24 07:13:00,34.6,33.0,30.23,NW,311,0.0,0.0,94,0.00,,---,0.00,VWS V14.00,2013-03-24 14:13:00,
2013-03-24 07:18:00,34.7,33.2,30.23,NW,311,0.0,0.0,94,0.00,,---,0.00,VWS V14.00,2013-03-24 14:18:00,
2013-03-24 07:23:00,34.8,33.0,30.23,NW,311,0.0,0.0,93,0.00,,---,0.00,VWS V14.00,2013-03-24 14:23:00,
2013-03-24 07:28:00,35.0,33.5,30.23,NW,311,0.0,0.0,94,0.00,,---,0.00,VWS V14.00,2013-03-24 14:28:00,
2013-03-24 07:33:00,35.1,33.3,30.23,NW,311,1.0,2.0,93,0.00,,---,0.00,VWS V14.00,2013-03-24 14:33:00,
2013-03-24 07:38:00,35.2,33.4,30.24,NW,311,0.0,2.0,93,0.00,,---,0.00,VWS V14.00,2013-03-24 14:38:00,
2013-03-24 07:43:00,35.2,33.4,30.23,NW,311,0.0,2.0,93,0.00,,---,0.00,VWS V14.00,2013-03-24 14:43:00,
2013-03-24 07:48:00,35.4,33.8,30.23,NW,311,0.0,2.0,94,0.00,,---,0.00,VWS V14.00,2013-03-24 14:48:00,
2013-03-24 07:53:00,35.4,33.6,30.23,NW,311,0.0,2.0,93,0.00,,---,0.00,VWS V14.00,2013-03-24 14:53:00,
2013-03-24 07:58:00,35.5,33.7,30.23,NW,321,2.0,2.0,93,0.00,,---,0.00,VWS V14.00,2013-03-24 14:58:00,
2013-03-24 08:03:00,35.4,33.6,30.23,NNW,332,1.0,1.0,93,0.00,,---,0.00,VWS V14.00,2013-03-24 15:03:00,
2013-03-24 08:08:00,35.5,33.7,30.23,North,355,0.0,1.0,93,0.00,,---,0.00,VWS V14.00,2013-03-24 15:08:00,
2013-03-24 08:13:00,35.6,33.8,30.23,North,355,0.0,1.0,93,0.00,,---,0.00,VWS V14.00,2013-03-24 15:13:00,
2013-03-24 08:18:00,35.7,33.9,30.23,NNW,327,0.0,1.0,93,0.00,,---,0.00,VWS V14.00,2013-03-24 15:18:00,
2013-03-24 08:23:00,35.8,34.0,30.23,NNW,327,0.0,2.0,93,0.00,,---,0.00,VWS V14.00,2013-03-24 15:23:00,
2013-03-24 08:29:00,35.9,34.1,30.23,NNW,329,0.0,2.0,93,0.00,,---,0.00,VWS V14.00,2013-03-24 15:29:00,
2013-03-24 08:34:00,36.0,33.9,30.23,NNW,329,0.0,2.0,92,0.00,,---,0.00,VWS V14.00,2013-03-24 15:34:00,
2013-03-24 08:39:00,36.2,34.4,30.23,NNW,329,1.0,2.0,93,0.00,,---,0.00,VWS V14.00,2013-03-24 15:39:00,
2013-03-24 08:44:00,36.4,34.3,30.23,NNW,331,0.0,2.0,92,0.00,,---,0.00,VWS V14.00,2013-03-24 15:44:00,
2013-03-24 08:49:00,36.7,34.6,30.23,NNW,333,0.0,2.0,92,0.00,,---,0.00,VWS V14.00,2013-03-24 15:49:00,
2013-03-24 08:54:00,37.0,34.9,30.23,NNW,339,2.0,4.0,92,0.00,,---,0.00,VWS V14.00,2013-03-24 15:54:00,
2013-03-24 08:59:00,37.5,35.4,30.23,NNW,342,2.0,4.0,92,0.00,,---,0.00,VWS V14.00,2013-03-24 15:59:00,
2013-03-24 09:04:00,37.9,35.2,30.23,NNW,328,0.0,2.0,90,0.00,,---,0.00,VWS V14.00,2013-03-24 16:04:00,
2013-03-24 09:09:00,38.3,35.9,30.23,NNW,338,0.0,2.0,91,0.00,,---,0.00,VWS V14.00,2013-03-24 16:09:00,
2013-03-24 09:14:00,38.7,36.0,30.23,NE,44,1.0,3.0,90,0.00,,---,0.00,VWS V14.00,2013-03-24 16:14:00,
2013-03-24 09:19:00,39.1,36.4,30.22,NE,45,1.0,3.0,90,0.00,,---,0.00,VWS V14.00,2013-03-24 16:19:00,
2013-03-24 09:24:00,39.4,36.2,30.22,NNW,331,3.0,4.0,88,0.00,,---,0.00,VWS V14.00,2013-03-24 16:24:00,
2013-03-24 09:29:00,39.5,36.2,30.22,North,349,0.0,4.0,88,0.00,,---,0.00,VWS V14.00,2013-03-24 16:29:00,
2013-03-24 09:34:00,39.7,36.4,30.22,NNW,342,0.0,3.0,88,0.00,,---,0.00,VWS V14.00,2013-03-24 16:34:00,
2013-03-24 09:39:00,39.7,35.9,30.22,NNW,338,1.0,3.0,86,0.00,,---,0.00,VWS V14.00,2013-03-24 16:39:00,
2013-03-24 09:44:00,39.8,36.0,30.22,NNW,332,1.0,4.0,86,0.00,,---,0.00,VWS V14.00,2013-03-24 16:44:00,
2013-03-24 09:49:00,40.0,36.5,30.22,NNE,14,2.0,4.0,87,0.00,,---,0.00,VWS V14.00,2013-03-24 16:49:00,
2013-03-24 09:54:00,40.3,36.8,30.22,NNW,340,3.0,4.0,87,0.00,,---,0.00,VWS V14.00,2013-03-24 16:54:00,
2013-03-24 09:59:00,40.7,36.5,30.22,North,351,1.0,5.0,85,0.00,,---,0.00,VWS V14.00,2013-03-24 16:59:00,
2013-03-24 10:04:00,41.0,36.8,30.22,NNW,334,1.0,3.0,85,0.00,,---,0.00,VWS V14.00,2013-03-24 17:04:00,
2013-03-24 10:09:00,41.4,37.5,30.22,NNW,347,3.0,4.0,86,0.00,,---,0.00,VWS V14.00,2013-03-24 17:09:00,
2013-03-24 10:14:00,41.6,36.8,30.22,NNW,340,0.0,4.0,83,0.00,,---,0.00,VWS V14.00,2013-03-24 17:14:00,
2013-03-24 10:19:00,41.8,37.0,30.22,NW,319,3.0,4.0,83,0.00,,---,0.00,VWS V14.00,2013-03-24 17:19:00,
2013-03-24 10:24:00,42.0,36.9,30.22,North,360,0.0,4.0,82,0.00,,---,0.00,VWS V14.00,2013-03-24 17:24:00,
2013-03-24 10:29:00,42.3,36.9,30.22,North,5,2.0,4.0,81,0.00,,---,0.00,VWS V14.00,2013-03-24 17:29:00,
2013-03-24 10:34:00,42.5,37.4,30.22,NE,54,1.0,3.0,82,0.00,,---,0.00,VWS V14.00,2013-03-24 17:34:00,
2013-03-24 10:39:00,42.7,37.6,30.22,NNW,333,1.0,4.0,82,0.00,,---,0.00,VWS V14.00,2013-03-24 17:39:00,
2013-03-24 10:44:00,42.9,36.8,30.21,North,355,1.0,4.0,79,0.00,,---,0.00,VWS V14.00,2013-03-24 17:44:00,
2013-03-24 10:49:00,43.1,37.0,30.21,NNW,344,1.0,4.0,79,0.00,,---,0.00,VWS V14.00,2013-03-24 17:49:00,
2013-03-24 10:54:00,43.4,37.0,30.21,NW,313,1.0,4.0,78,0.00,,---,0.00,VWS V14.00,2013-03-24 17:54:00,
2013-03-24 10:59:00,43.6,37.5,30.21,North,5,1.0,4.0,79,0.00,,---,0.00,VWS V14.00,2013-03-24 17:59:00,
2013-03-24 11:04:00,43.9,37.5,30.21,NNE,17,2.0,5.0,78,0.00,,---,0.00,VWS V14.00,2013-03-24 18:04:00,
2013-03-24 11:09:00,44.2,38.1,30.20,NNW,333,1.0,5.0,79,0.00,,---,0.00,VWS V14.00,2013-03-24 18:09:00,
2013-03-24 11:14:00,44.4,38.3,30.21,NE,45,2.0,5.0,79,0.00,,---,0.00,VWS V14.00,2013-03-24 18:14:00,
2013-03-24 11:19:00,44.4,38.0,30.21,NE,53,3.0,5.0,78,0.00,,---,0.00,VWS V14.00,2013-03-24 18:19:00,
2013-03-24 11:24:00,44.5,38.4,30.21,NW,313,4.0,5.0,79,0.00,,---,0.00,VWS V14.00,2013-03-24 18:24:00,
2013-03-24 11:29:00,44.9,38.8,30.20,NNW,337,0.0,5.0,79,0.00,,---,0.00,VWS V14.00,2013-03-24 18:29:00,
2013-03-24 11:34:00,45.2,38.4,30.20,NNW,340,2.0,3.0,77,0.00,,---,0.00,VWS V14.00,2013-03-24 18:34:00,
2013-03-24 11:39:00,45.7,37.9,30.20,North,355,5.0,6.0,74,0.00,,---,0.00,VWS V14.00,2013-03-24 18:39:00,
2013-03-24 11:45:00,45.8,38.3,30.20,NW,316,4.0,6.0,75,0.00,,---,0.00,VWS V14.00,2013-03-24 18:45:00,
2013-03-24 11:50:00,46.5,39.0,30.20,NW,322,2.0,6.0,75,0.00,,---,0.00,VWS V14.00,2013-03-24 18:50:00,
2013-03-24 11:55:00,47.1,39.2,30.20,North,355,2.0,6.0,74,0.00,,---,0.00,VWS V14.00,2013-03-24 18:55:00,
2013-03-24 12:00:00,47.3,39.5,30.20,North,5,0.0,6.0,74,0.00,,---,0.00,VWS V14.00,2013-03-24 19:00:00,
2013-03-24 12:05:00,47.6,39.7,30.20,South,173,0.0,2.0,74,0.00,,---,0.00,VWS V14.00,2013-03-24 19:05:00,
2013-03-24 12:10:00,48.0,39.1,30.20,North,360,1.0,4.0,71,0.00,,---,0.00,VWS V14.00,2013-03-24 19:10:00,
2013-03-24 12:15:00,48.6,40.0,30.19,NNW,336,2.0,4.0,72,0.00,,---,0.00,VWS V14.00,2013-03-24 19:15:00,
2013-03-24 12:20:00,48.6,38.5,30.19,East,93,1.0,4.0,68,0.00,,---,0.00,VWS V14.00,2013-03-24 19:20:00,
2013-03-24 12:25:00,48.8,39.5,30.19,WNW,287,1.0,4.0,70,0.00,,---,0.00,VWS V14.00,2013-03-24 19:25:00,
2013-03-24 12:30:00,49.1,40.1,30.19,NNW,340,3.0,5.0,71,0.00,,---,0.00,VWS V14.00,2013-03-24 19:30:00,
2013-03-24 12:35:00,49.3,38.8,30.19,NW,317,1.0,5.0,67,0.00,,---,0.00,VWS V14.00,2013-03-24 19:35:00,
2013-03-24 12:40:00,49.2,39.5,30.19,NNE,15,1.0,5.0,69,0.00,,---,0.00,VWS V14.00,2013-03-24 19:40:00,
2013-03-24 12:45:00,49.1,39.4,30.19,NNE,13,1.0,6.0,69,0.00,,---,0.00,VWS V14.00,2013-03-24 19:45:00,
2013-03-24 12:50:00,49.4,40.0,30.19,NW,317,1.0,6.0,70,0.00,,---,0.00,VWS V14.00,2013-03-24 19:50:00,
2013-03-24 12:55:00,49.5,39.0,30.19,North,5,1.0,7.0,67,0.00,,---,0.00,VWS V14.00,2013-03-24 19:55:00,
2013-03-24 13:00:00,49.4,39.3,30.19,NNW,344,2.0,7.0,68,0.00,,---,0.00,VWS V14.00,2013-03-24 20:00:00,
2013-03-24 13:05:00,49.6,39.9,30.18,NE,34,2.0,4.0,69,0.00,,---,0.00,VWS V14.00,2013-03-24 20:05:00,
2013-03-24 13:10:00,49.5,39.8,30.19,NNW,337,1.0,6.0,69,0.00,,---,0.00,VWS V14.00,2013-03-24 20:10:00,
2013-03-24 13:15:00,49.6,39.5,30.19,NNW,327,0.0,6.0,68,0.00,,---,0.00,VWS V14.00,2013-03-24 20:15:00,
2013-03-24 13:20:00,49.7,39.6,30.19,North,5,1.0,6.0,68,0.00,,---,0.00,VWS V14.00,2013-03-24 20:20:00,
2013-03-24 13:25:00,49.7,39.2,30.18,NW,318,2.0,6.0,67,0.00,,---,0.00,VWS V14.00,2013-03-24 20:25:00,
2013-03-24 13:30:00,49.9,39.8,30.18,North,355,2.0,6.0,68,0.00,,---,0.00,VWS V14.00,2013-03-24 20:30:00,
2013-03-24 13:35:00,50.2,39.7,30.18,WNW,292,0.0,3.0,67,0.00,,---,0.00,VWS V14.00,2013-03-24 20:35:00,
2013-03-24 13:40:00,50.5,40.0,30.17,North,350,4.0,4.0,67,0.00,,---,0.00,VWS V14.00,2013-03-24 20:40:00,
2013-03-24 13:45:00,50.4,40.2,30.17,NNW,344,2.0,4.0,68,0.00,,---,0.00,VWS V14.00,2013-03-24 20:45:00,
2013-03-24 13:50:00,50.5,40.3,30.17,NNW,340,0.0,4.0,68,0.00,,---,0.00,VWS V14.00,2013-03-24 20:50:00,
2013-03-24 13:55:00,50.6,40.1,30.17,NW,321,3.0,5.0,67,0.00,,---,0.00,VWS V14.00,2013-03-24 20:55:00,
2013-03-24 14:00:00,50.6,39.7,30.17,NNW,342,2.0,5.0,66,0.00,,---,0.00,VWS V14.00,2013-03-24 21:00:00,
2013-03-24 14:05:00,50.5,40.0,30.17,NW,318,2.0,7.0,67,0.00,,---,0.00,VWS V14.00,2013-03-24 21:05:00,
2013-03-24 14:10:00,51.1,40.5,30.17,NNW,345,1.0,7.0,67,0.00,,---,0.00,VWS V14.00,2013-03-24 21:10:00,
2013-03-24 14:15:00,51.5,39.7,30.17,NW,323,0.0,7.0,64,0.00,,---,0.00,VWS V14.00,2013-03-24 21:15:00,
2013-03-24 14:20:00,51.6,40.6,30.17,NNE,29,4.0,7.0,66,0.00,,---,0.00,VWS V14.00,2013-03-24 21:20:00,
2013-03-24 14:25:00,51.5,39.7,30.16,ENE,65,2.0,7.0,64,0.00,,---,0.00,VWS V14.00,2013-03-24 21:25:00,
2013-03-24 14:30:00,51.7,39.5,30.16,NNW,333,0.0,7.0,63,0.00,,---,0.00,VWS V14.00,2013-03-24 21:30:00,
2013-03-24 14:35:00,52.0,40.6,30.16,ENE,58,2.0,5.0,65,0.00,,---,0.00,VWS V14.00,2013-03-24 21:35:00,
2013-03-24 14:40:00,52.2,40.8,30.16,NNW,335,3.0,5.0,65,0.00,,---,0.00,VWS V14.00,2013-03-24 21:40:00,
2013-03-24 14:46:00,52.8,41.0,30.15,NNW,327,2.0,5.0,64,0.00,,---,0.00,VWS V14.00,2013-03-24 21:46:00,
2013-03-24 14:51:00,53.3,40.6,30.15,NE,42,4.0,7.0,62,0.00,,---,0.00,VWS V14.00,2013-03-24 21:51:00,
2013-03-24 14:56:00,53.5,41.2,30.16,North,355,1.0,7.0,63,0.00,,---,0.00,VWS V14.00,2013-03-24 21:56:00,
2013-03-24 15:01:00,53.7,41.0,30.15,NNE,13,0.0,7.0,62,0.00,,---,0.00,VWS V14.00,2013-03-24 22:01:00,
2013-03-24 15:06:00,54.1,40.5,30.15,NW,317,2.0,6.0,60,0.00,,---,0.00,VWS V14.00,2013-03-24 22:06:00,
2013-03-24 15:11:00,54.1,41.0,30.15,NNW,339,2.0,6.0,61,0.00,,---,0.00,VWS V14.00,2013-03-24 22:11:00,
2013-03-24 15:16:00,54.0,40.4,30.14,NNW,344,2.0,6.0,60,0.00,,---,0.00,VWS V14.00,2013-03-24 22:16:00,
2013-03-24 15:21:00,53.9,39.0,30.14,WNW,292,2.0,6.0,57,0.00,,---,0.00,VWS V14.00,2013-03-24 22:21:00,
2013-03-24 15:26:00,54.1,39.2,30.14,North,360,1.0,6.0,57,0.00,,---,0.00,VWS V14.00,2013-03-24 22:26:00,
2013-03-24 15:31:00,54.2,39.3,30.14,NW,315,5.0,6.0,57,0.00,,---,0.00,VWS V14.00,2013-03-24 22:31:00,
2013-03-24 15:36:00,54.0,39.6,30.14,NW,321,3.0,6.0,58,0.00,,---,0.00,VWS V14.00,2013-03-24 22:36:00,
2013-03-24 15:41:00,53.8,39.4,30.14,NW,325,1.0,6.0,58,0.00,,---,0.00,VWS V14.00,2013-03-24 22:41:00,
2013-03-24 15:46:00,53.7,39.7,30.15,NNW,336,0.0,6.0,59,0.00,,---,0.00,VWS V14.00,2013-03-24 22:46:00,
2013-03-24 15:51:00,53.6,40.9,30.14,NE,53,2.0,6.0,62,0.00,,---,0.00,VWS V14.00,2013-03-24 22:51:00,
2013-03-24 15:57:00,53.6,40.5,30.14,NNW,347,2.0,6.0,61,0.00,,---,0.00,VWS V14.00,2013-03-24 22:57:00,
2013-03-24 16:02:00,53.8,40.7,30.14,NW,321,1.0,6.0,61,0.00,,---,0.00,VWS V14.00,2013-03-24 23:02:00,
2013-03-24 16:07:00,53.9,40.8,30.13,NNW,344,2.0,3.0,61,0.00,,---,0.00,VWS V14.00,2013-03-24 23:07:00,
2013-03-24 16:12:00,53.8,40.7,30.13,North,355,1.0,5.0,61,0.00,,---,0.00,VWS V14.00,2013-03-24 23:12:00,
2013-03-24 16:17:00,53.7,40.6,30.13,NW,324,2.0,5.0,61,0.00,,---,0.00,VWS V14.00,2013-03-24 23:17:00,
2013-03-24 16:22:00,53.7,41.0,30.13,North,360,2.0,5.0,62,0.00,,---,0.00,VWS V14.00,2013-03-24 23:22:00,
2013-03-24 16:27:00,53.8,41.1,30.12,NNW,331,1.0,5.0,62,0.00,,---,0.00,VWS V14.00,2013-03-24 23:27:00,
2013-03-24 16:32:00,53.8,39.8,30.13,NNW,335,4.0,5.0,59,0.00,,---,0.00,VWS V14.00,2013-03-24 23:32:00,
2013-03-24 16:37:00,53.5,40.8,30.12,NW,321,0.0,5.0,62,0.00,,---,0.00,VWS V14.00,2013-03-24 23:37:00,
2013-03-24 16:42:00,53.6,40.9,30.12,North,5,0.0,5.0,62,0.00,,---,0.00,VWS V14.00,2013-03-24 23:42:00,
2013-03-24 16:47:00,53.7,40.6,30.13,NW,319,0.0,5.0,61,0.00,,---,0.00,VWS V14.00,2013-03-24 23:47:00,
2013-03-24 16:52:00,53.8,40.3,30.13,North,9,0.0,5.0,60,0.00,,---,0.00,VWS V14.00,2013-03-24 23:52:00,
2013-03-24 16:57:00,54.0,40.9,30.12,North,9,0.0,5.0,61,0.00,,---,0.00,VWS V14.00,2013-03-24 23:57:00,
2013-03-24 17:02:00,54.1,41.0,30.12,NE,54,0.0,5.0,61,0.00,,---,0.00,VWS V14.00,2013-03-25 00:02:00,
2013-03-24 17:07:00,54.1,40.1,30.12,NNW,329,1.0,4.0,59,0.00,,---,0.00,VWS V14.00,2013-03-25 00:07:00,
2013-03-24 17:12:00,54.0,41.3,30.12,NW,325,0.0,4.0,62,0.00,,---,0.00,VWS V14.00,2013-03-25 00:12:00,
2013-03-24 17:17:00,54.0,40.0,30.12,NW,319,2.0,4.0,59,0.00,,---,0.00,VWS V14.00,2013-03-25 00:17:00,
2013-03-24 17:22:00,54.0,40.4,30.11,North,350,1.0,6.0,60,0.00,,---,0.00,VWS V14.00,2013-03-25 00:22:00,
2013-03-24 17:27:00,53.7,39.7,30.11,North,10,0.0,6.0,59,0.00,,---,0.00,VWS V14.00,2013-03-25 00:27:00,
2013-03-24 17:32:00,53.7,40.2,30.11,North,355,2.0,2.0,60,0.00,,---,0.00,VWS V14.00,2013-03-25 00:32:00,
2013-03-24 17:37:00,53.5,40.0,30.11,NNW,327,2.0,4.0,60,0.00,,---,0.00,VWS V14.00,2013-03-25 00:37:00,
2013-03-24 17:42:00,53.5,41.2,30.10,NNW,334,0.0,4.0,63,0.00,,---,0.00,VWS V14.00,2013-03-25 00:42:00,
2013-03-24 17:47:00,53.6,40.5,30.10,NW,323,2.0,4.0,61,0.00,,---,0.00,VWS V14.00,2013-03-25 00:47:00,
2013-03-24 17:52:00,53.5,40.4,30.10,North,351,0.0,5.0,61,0.00,,---,0.00,VWS V14.00,2013-03-25 00:52:00,
2013-03-24 17:57:00,53.6,40.9,30.10,NNW,336,0.0,5.0,62,0.00,,---,0.00,VWS V14.00,2013-03-25 00:57:00,
2013-03-24 18:02:00,53.7,40.2,30.10,NW,324,0.0,0.0,60,0.00,,---,0.00,VWS V14.00,2013-03-25 01:02:00,
2013-03-24 18:07:00,53.7,41.0,30.10,NW,325,0.0,2.0,62,0.00,,---,0.00,VWS V14.00,2013-03-25 01:07:00,
2013-03-24 18:12:00,53.6,40.9,30.10,North,360,0.0,2.0,62,0.00,,---,0.00,VWS V14.00,2013-03-25 01:12:00,
2013-03-24 18:18:00,53.5,41.6,30.10,North,360,0.0,2.0,64,0.00,,---,0.00,VWS V14.00,2013-03-25 01:18:00,
2013-03-24 18:23:00,53.4,40.7,30.10,NNW,343,0.0,3.0,62,0.00,,---,0.00,VWS V14.00,2013-03-25 01:23:00,
2013-03-24 18:28:00,53.4,41.1,30.09,NW,324,1.0,3.0,63,0.00,,---,0.00,VWS V14.00,2013-03-25 01:28:00,
2013-03-24 18:33:00,53.3,40.6,30.09,NW,325,0.0,0.0,62,0.00,,---,0.00,VWS V14.00,2013-03-25 01:33:00,
2013-03-24 18:38:00,53.3,41.8,30.09,NW,325,0.0,1.0,65,0.00,,---,0.00,VWS V14.00,2013-03-25 01:38:00,
2013-03-24 18:43:00,53.3,41.8,30.09,NW,325,0.0,1.0,65,0.00,,---,0.00,VWS V14.00,2013-03-25 01:43:00,
2013-03-24 18:48:00,53.2,41.0,30.09,NW,326,0.0,2.0,63,0.00,,---,0.00,VWS V14.00,2013-03-25 01:48:00,
2013-03-24 18:53:00,53.1,41.7,30.09,NNW,331,0.0,2.0,65,0.00,,---,0.00,VWS V14.00,2013-03-25 01:53:00,
2013-03-24 18:58:00,53.0,42.0,30.09,NNW,329,0.0,2.0,66,0.00,,---,0.00,VWS V14.00,2013-03-25 01:58:00,
2013-03-24 19:03:00,52.8,41.8,30.09,NNW,329,0.0,0.0,66,0.00,,---,0.00,VWS V14.00,2013-03-25 02:03:00,
2013-03-24 19:08:00,52.6,42.0,30.08,NNW,329,0.0,0.0,67,0.00,,---,0.00,VWS V14.00,2013-03-25 02:08:00,
2013-03-24 19:13:00,52.4,42.5,30.08,NNW,329,0.0,0.0,69,0.00,,---,0.00,VWS V14.00,2013-03-25 02:13:00,
2013-03-24 19:18:00,52.1,41.9,30.08,NNW,329,0.0,0.0,68,0.00,,---,0.00,VWS V14.00,2013-03-25 02:18:00,
2013-03-24 19:23:00,51.7,41.9,30.08,NNW,329,0.0,0.0,69,0.00,,---,0.00,VWS V14.00,2013-03-25 02:23:00,
2013-03-24 19:28:00,51.2,41.4,30.08,NNW,329,0.0,0.0,69,0.00,,---,0.00,VWS V14.00,2013-03-25 02:28:00,
2013-03-24 19:33:00,50.8,41.4,30.09,NNW,329,0.0,0.0,70,0.00,,---,0.00,VWS V14.00,2013-03-25 02:33:00,
2013-03-24 19:38:00,50.4,41.0,30.09,NNW,329,0.0,0.0,70,0.00,,---,0.00,VWS V14.00,2013-03-25 02:38:00,
2013-03-24 19:43:00,50.2,42.2,30.08,NNW,329,0.0,0.0,74,0.00,,---,0.00,VWS V14.00,2013-03-25 02:43:00,
2013-03-24 19:48:00,49.8,41.5,30.09,NNW,329,0.0,0.0,73,0.00,,---,0.00,VWS V14.00,2013-03-25 02:48:00,
2013-03-24 19:53:00,49.6,41.3,30.08,NNW,329,0.0,0.0,73,0.00,,---,0.00,VWS V14.00,2013-03-25 02:53:00,
2013-03-24 19:58:00,49.2,41.3,30.08,NNW,329,0.0,0.0,74,0.00,,---,0.00,VWS V14.00,2013-03-25 02:58:00,
2013-03-24 20:03:00,49.0,41.1,30.08,NNW,329,0.0,0.0,74,0.00,,---,0.00,VWS V14.00,2013-03-25 03:03:00,
2013-03-24 20:08:00,48.8,41.2,30.08,NNW,329,0.0,0.0,75,0.00,,---,0.00,VWS V14.00,2013-03-25 03:08:00,
2013-03-24 20:13:00,48.5,41.3,30.08,NNW,329,0.0,0.0,76,0.00,,---,0.00,VWS V14.00,2013-03-25 03:13:00,
2013-03-24 20:18:00,48.3,41.1,30.08,NNW,329,0.0,0.0,76,0.00,,---,0.00,VWS V14.00,2013-03-25 03:18:00,
2013-03-24 20:23:00,48.1,41.2,30.08,NNW,329,0.0,0.0,77,0.00,,---,0.00,VWS V14.00,2013-03-25 03:23:00,
2013-03-24 20:28:00,47.9,41.7,30.08,NNW,329,0.0,0.0,79,0.00,,---,0.00,VWS V14.00,2013-03-25 03:28:00,
2013-03-24 20:33:00,47.7,41.2,30.08,NNW,329,0.0,0.0,78,0.00,,---,0.00,VWS V14.00,2013-03-25 03:33:00,
2013-03-24 20:38:00,47.5,41.0,30.08,NNW,329,0.0,0.0,78,0.00,,---,0.00,VWS V14.00,2013-03-25 03:38:00,
2013-03-24 20:43:00,47.3,40.8,30.08,NNW,329,0.0,0.0,78,0.00,,---,0.00,VWS V14.00,2013-03-25 03:43:00,
2013-03-24 20:48:00,47.2,40.7,30.08,NNW,329,0.0,0.0,78,0.00,,---,0.00,VWS V14.00,2013-03-25 03:48:00,
2013-03-24 20:53:00,47.1,40.6,30.08,NNW,329,0.0,0.0,78,0.00,,---,0.00,VWS V14.00,2013-03-25 03:53:00,
2013-03-24 20:58:00,46.9,40.7,30.08,NNW,329,0.0,0.0,79,0.00,,---,0.00,VWS V14.00,2013-03-25 03:58:00,
2013-03-24 21:00:00,46.9,41.1,30.08,NNW,329,0.0,0.0,80,0.00,,---,0.00,VWS V14.00,2013-03-25 04:00:00,
2013-03-24 21:05:00,46.8,41.3,30.08,NNW,329,0.0,0.0,81,0.00,,---,0.00,VWS V14.00,2013-03-25 04:05:00,
2013-03-24 21:10:00,46.7,41.2,30.08,NNW,329,0.0,0.0,81,0.00,,---,0.00,VWS V14.00,2013-03-25 04:10:00,
2013-03-24 21:15:00,46.7,40.5,30.08,NNW,329,0.0,0.0,79,0.00,,---,0.00,VWS V14.00,2013-03-25 04:15:00,
2013-03-24 21:20:00,46.5,40.7,30.08,NNW,329,0.0,0.0,80,0.00,,---,0.00,VWS V14.00,2013-03-25 04:20:00,
2013-03-24 21:25:00,46.4,40.2,30.08,NNW,329,0.0,0.0,79,0.00,,---,0.00,VWS V14.00,2013-03-25 04:25:00,
2013-03-24 21:30:00,46.2,40.1,30.08,NNW,329,0.0,0.0,79,0.00,,---,0.00,VWS V14.00,2013-03-25 04:30:00,
2013-03-24 21:35:00,46.0,39.9,30.08,NNW,329,0.0,0.0,79,0.00,,---,0.00,VWS V14.00,2013-03-25 04:35:00,
2013-03-24 21:40:00,45.8,39.7,30.08,NNW,329,0.0,0.0,79,0.00,,---,0.00,VWS V14.00,2013-03-25 04:40:00,
2013-03-24 21:45:00,45.6,39.8,30.08,NNW,329,0.0,0.0,80,0.00,,---,0.00,VWS V14.00,2013-03-25 04:45:00,
2013-03-24 21:50:00,45.3,39.5,30.09,NNW,329,0.0,0.0,80,0.00,,---,0.00,VWS V14.00,2013-03-25 04:50:00,
2013-03-24 21:55:00,45.1,39.3,30.08,NNW,329,0.0,0.0,80,0.00,,---,0.00,VWS V14.00,2013-03-25 04:55:00,
2013-03-24 22:00:00,45.0,39.5,30.09,NNW,329,0.0,0.0,81,0.00,,---,0.00,VWS V14.00,2013-03-25 05:00:00,
2013-03-24 22:05:00,44.9,40.1,30.09,NNW,329,0.0,0.0,83,0.00,,---,0.00,VWS V14.00,2013-03-25 05:05:00,
2013-03-24 22:10:00,44.7,39.5,30.09,NNW,329,0.0,0.0,82,0.00,,---,0.00,VWS V14.00,2013-03-25 05:10:00,
2013-03-24 22:15:00,44.5,39.0,30.09,NNW,329,0.0,0.0,81,0.00,,---,0.00,VWS V14.00,2013-03-25 05:15:00,
2013-03-24 22:20:00,44.3,39.2,30.09,NNW,329,0.0,0.0,82,0.00,,---,0.00,VWS V14.00,2013-03-25 05:20:00,
2013-03-24 22:25:00,44.2,39.7,30.08,NNW,329,0.0,0.0,84,0.00,,---,0.00,VWS V14.00,2013-03-25 05:25:00,
2013-03-24 22:30:00,44.1,39.3,30.08,NNW,329,0.0,0.0,83,0.00,,---,0.00,VWS V14.00,2013-03-25 05:30:00,
2013-03-24 22:35:00,44.0,39.2,30.08,NNW,329,0.0,0.0,83,0.00,,---,0.00,VWS V14.00,2013-03-25 05:35:00,
2013-03-24 22:41:00,43.9,39.1,30.08,NNW,329,0.0,0.0,83,0.00,,---,0.00,VWS V14.00,2013-03-25 05:41:00,
2013-03-24 22:46:00,43.9,38.8,30.08,NNW,329,0.0,0.0,82,0.00,,---,0.00,VWS V14.00,2013-03-25 05:46:00,
2013-03-24 22:51:00,43.8,38.7,30.08,NNW,329,0.0,0.0,82,0.00,,---,0.00,VWS V14.00,2013-03-25 05:51:00,
2013-03-24 22:56:00,43.7,38.6,30.08,NNW,329,0.0,0.0,82,0.00,,---,0.00,VWS V14.00,2013-03-25 05:56:00,
2013-03-24 23:01:00,43.7,38.6,30.09,NNW,329,0.0,0.0,82,0.00,,---,0.00,VWS V14.00,2013-03-25 06:01:00,
2013-03-24 23:06:00,43.6,38.5,30.09,NNW,329,0.0,0.0,82,0.00,,---,0.00,VWS V14.00,2013-03-25 06:06:00,
2013-03-24 23:11:00,43.5,38.7,30.09,NNW,329,0.0,0.0,83,0.00,,---,0.00,VWS V14.00,2013-03-25 06:11:00,
2013-03-24 23:16:00,43.4,38.6,30.09,NNW,329,0.0,0.0,83,0.00,,---,0.00,VWS V14.00,2013-03-25 06:16:00,
2013-03-24 23:21:00,43.3,38.5,30.09,NNW,329,0.0,0.0,83,0.00,,---,0.00,VWS V14.00,2013-03-25 06:21:00,
2013-03-24 23:26:00,43.2,38.4,30.09,NNW,329,0.0,0.0,83,0.00,,---,0.00,VWS V14.00,2013-03-25 06:26:00,
2013-03-24 23:31:00,43.2,38.1,30.09,NNW,329,0.0,0.0,82,0.00,,---,0.00,VWS V14.00,2013-03-25 06:31:00,
2013-03-24 23:36:00,43.1,38.3,30.09,NNW,329,0.0,0.0,83,0.00,,---,0.00,VWS V14.00,2013-03-25 06:36:00,
2013-03-24 23:41:00,43.1,38.6,30.09,NNW,329,0.0,0.0,84,0.00,,---,0.00,VWS V14.00,2013-03-25 06:41:00,
2013-03-24 23:46:00,43.0,38.5,30.09,NNW,329,0.0,0.0,84,0.00,,---,0.00,VWS V14.00,2013-03-25 06:46:00,
2013-03-24 23:51:00,42.9,38.7,30.09,NNW,329,0.0,0.0,85,0.00,,---,0.00,VWS V14.00,2013-03-25 06:51:00,
2013-03-24 23:56:00,42.8,38.3,30.09,NNW,329,0.0,0.0,84,0.00,,---,0.00,VWS V14.00,2013-03-25 06:56:00,